Here is the Quick Look data you requested

The Data originates at the National Weather Service, and is made available here by the UAlbany Department of Atmospheric and Environmental Sciences

Surface Observations

K40B 231816Z AUTO 23007G15KT 180V290 17/07 A2977 RMK AO1 SLP085 T01680075 10170
 20120 58006
K8B0 231755Z AUTO 29007KT 260V320 10SM BKN038 BKN100 15/06 A2986 RMK AO2=
KAUG 231753Z AUTO 31009G14KT 10SM CLR 20/07 A2983 RMK AO2 SLP100 T02000067
 10206 20094 58018=
KBGR 231753Z 27010G22KT 10SM SCT045 SCT120 BKN200 19/08 A2982 RMK AO2 SLP096
 T01890083 10189 20089 58022=
KBHB 231756Z AUTO 20006KT 10SM FEW038 17/10 A2983 RMK AO2 SLP104 T01720100
 10172 20089 58015=
KCAR 231754Z AUTO 26006KT 10SM OVC055 18/07 A2973 RMK AO2 SLP073 T01780067
 10178 20089 58014=
KFVE 231753Z AUTO 24015G23KT 10SM BKN049 16/06 A2973 RMK AO2 PK WND 23026/1741
 SLP068 T01610061 10167 20061 56011=
KGNR 231756Z AUTO VRB05KT 17/07 A2980 RMK AO1 SLP095 T01670072 10167 20078
 58011=
KHUL 231753Z AUTO 24008KT 10SM BKN047 BKN055 17/09 A2977 RMK AO2 SLP081
 T01720089 10178 20089 56021 TSNO=
KIWI 231753Z AUTO VRB04KT 10SM BKN043 20/09 A2984 RMK AO2 SLP105 T02000094
 10200 20106 58019=
KIZG 231754Z AUTO 13003KT 10SM CLR 21/08 A2984 RMK AO2 SLP104 T02110078 10211
 20094 58020=
KLEW 231756Z AUTO 28006KT 10SM FEW049 19/09 A2983 RMK AO2 SLP117 T01940094
 10194 20100 58020=
KMLT 231753Z AUTO 29008G16KT 10SM CLR 19/07 A2980 RMK AO2 SLP096 T01890072
 10189 20089 56018 TSNO=
KPQI 231756Z AUTO 25007KT 10SM FEW048 OVC060 18/07 A2975 RMK AO2 SLP116
 T01780067 10178 20094 58014=
KPWM 231751Z 17006KT 10SM FEW045 OVC250 18/11 A2985 RMK AO2 SLP107 T01780111
 10194 20106 58020=
KRKD 231756Z AUTO 15006KT 10SM SCT042 13/11 A2984 RMK AO2 SLP107 T01330106
 10156 20089 58014=
KSFM 231756Z AUTO VRB05KT 9SM CLR 21/09 A2985 RMK AO2 SLP118 T02060089 10206
 20100 58018=
KWVL 231756Z AUTO 29008KT 10SM CLR 21/08 A2980 RMK AO2 SLP115 T02060083 10206
 20094 58017=